Time;durP1;ratioP1;P1;durP2;ratioP2;P2;SDS_P1;SDS_P2;PMS_P1;PMS_P2;Temp;Humidity;BMP_temperature;BMP_pressure;BME280_temperature;BME280_humidity;BME280_pressure;Samples;Min_cycle;Max_cycle;Signal;HPM_P1;HPM_P2
2022/04/24 00:01:51;;;;;;;3.05;2.85;;;20.50;43.60;;;;;;5036087;28;20167;-61
2022/04/24 00:04:17;;;;;;;2.70;2.50;;;20.50;43.50;;;;;;5037543;28;20144;-61
2022/04/24 00:06:42;;;;;;;3.42;2.70;;;20.50;43.60;;;;;;5033486;28;20060;-61
2022/04/24 00:09:08;;;;;;;3.00;2.80;;;20.50;43.50;;;;;;5034938;28;20045;-62
2022/04/24 00:11:33;;;;;;;3.03;2.55;;;20.50;43.50;;;;;;5032329;28;20156;-63
2022/04/24 00:13:59;;;;;;;2.97;2.78;;;20.50;43.50;;;;;;5035515;28;20569;-61
2022/04/24 00:16:25;;;;;;;3.03;2.83;;;20.50;43.50;;;;;;5033388;28;20049;-62
2022/04/24 00:18:50;;;;;;;3.05;2.85;;;20.50;43.40;;;;;;5048325;28;20045;-63
2022/04/24 00:21:16;;;;;;;2.80;2.60;;;20.50;43.40;;;;;;5035437;28;20037;-62
2022/04/24 00:23:41;;;;;;;2.80;2.60;;;20.50;43.40;;;;;;5035250;28;20045;-64
2022/04/24 00:26:07;;;;;;;2.80;2.60;;;20.50;43.40;;;;;;5033078;28;20495;-61
2022/04/24 00:28:32;;;;;;;3.13;2.88;;;20.50;43.30;;;;;;5042376;28;20160;-62
2022/04/24 00:30:58;;;;;;;2.90;2.70;;;20.50;43.30;;;;;;5033384;28;20079;-62
2022/04/24 00:33:24;;;;;;;2.95;2.75;;;20.50;43.30;;;;;;5033855;28;20798;-61
2022/04/24 00:35:50;;;;;;;2.92;2.72;;;20.50;43.20;;;;;;5034528;28;20052;-61
2022/04/24 00:38:15;;;;;;;2.90;2.70;;;20.50;43.30;;;;;;5034845;28;20045;-61
2022/04/24 00:40:44;;;;;;;3.22;2.92;;;20.40;43.20;;;;;;5034378;28;20041;-62
2022/04/24 00:43:10;;;;;;;2.60;2.40;;;20.50;43.30;;;;;;5034490;28;20049;-63
2022/04/24 00:45:35;;;;;;;4.60;2.78;;;20.40;43.30;;;;;;5031331;28;20041;-62
2022/04/24 00:48:01;;;;;;;3.10;2.70;;;20.40;43.20;;;;;;5049837;28;20060;-61
2022/04/24 00:50:27;;;;;;;2.30;2.20;;;20.40;43.20;;;;;;5033038;28;20041;-61
2022/04/24 00:52:52;;;;;;;2.92;2.72;;;20.40;43.20;;;;;;5034768;28;20693;-65
2022/04/24 00:55:23;;;;;;;2.70;2.50;;;20.40;43.20;;;;;;5033220;28;20059;-61
2022/04/24 00:57:49;;;;;;;2.80;2.60;;;20.40;43.10;;;;;;5033793;28;20112;-65
2022/04/24 01:00:15;;;;;;;2.80;2.53;;;20.40;43.20;;;;;;5034266;28;21432;-65
2022/04/24 01:02:40;;;;;;;2.60;2.40;;;20.40;43.10;;;;;;5028347;28;20041;-61
2022/04/24 01:05:08;;;;;;;2.60;2.40;;;20.40;43.10;;;;;;5035327;28;20936;-61
2022/04/24 01:07:34;;;;;;;3.35;3.05;;;20.40;43.10;;;;;;5035133;28;20086;-61
2022/04/24 01:10:00;;;;;;;2.60;2.40;;;20.40;43.10;;;;;;5034631;28;20334;-63
2022/04/24 01:12:25;;;;;;;2.85;2.65;;;20.40;43.10;;;;;;5031012;28;20041;-62
2022/04/24 01:14:51;;;;;;;2.50;2.30;;;20.40;43.10;;;;;;5034893;28;20041;-61
2022/04/24 01:17:17;;;;;;;3.00;2.70;;;20.40;43.10;;;;;;5034577;28;20037;-62
2022/04/24 01:19:42;;;;;;;2.95;2.70;;;20.40;43.00;;;;;;5033320;28;20041;-63
2022/04/24 01:22:08;;;;;;;2.67;2.47;;;20.40;43.00;;;;;;5033495;28;20043;-62
2022/04/24 01:24:33;;;;;;;3.92;2.80;;;20.40;43.00;;;;;;5031214;28;20040;-62
2022/04/24 01:26:59;;;;;;;3.30;3.00;;;20.40;43.00;;;;;;5031895;28;20089;-62
2022/04/24 01:29:25;;;;;;;3.00;2.70;;;20.40;43.00;;;;;;5032287;28;20045;-64
2022/04/24 01:31:51;;;;;;;2.70;2.50;;;20.40;42.90;;;;;;5032894;28;20283;-63
2022/04/24 01:34:18;;;;;;;3.25;2.42;;;20.40;42.90;;;;;;5049772;28;20842;-62
2022/04/24 01:36:44;;;;;;;2.65;2.40;;;20.40;42.90;;;;;;5031978;28;20042;-63
2022/04/24 01:39:10;;;;;;;2.75;2.55;;;20.40;42.90;;;;;;5030899;28;20045;-61
2022/04/24 01:41:36;;;;;;;2.70;2.50;;;20.40;43.00;;;;;;5033760;28;20079;-63
2022/04/24 01:44:02;;;;;;;2.70;2.50;;;20.40;42.90;;;;;;5032606;28;20428;-62
2022/04/24 01:46:27;;;;;;;2.60;2.40;;;20.30;42.80;;;;;;5034131;28;20060;-61
2022/04/24 01:48:53;;;;;;;2.47;2.38;;;20.30;42.80;;;;;;5034943;28;20053;-63
2022/04/24 01:51:18;;;;;;;2.60;2.40;;;20.30;42.80;;;;;;5034847;28;20042;-63
2022/04/24 01:53:44;;;;;;;2.40;2.20;;;20.30;42.80;;;;;;5034619;28;20360;-62
2022/04/24 01:56:11;;;;;;;3.08;2.50;;;20.30;42.80;;;;;;5051496;28;20103;-63
2022/04/24 01:58:37;;;;;;;2.50;2.30;;;20.30;42.80;;;;;;5049695;28;20068;-62
2022/04/24 02:01:04;;;;;;;2.70;2.50;;;20.30;42.70;;;;;;5029767;28;20060;-62
2022/04/24 02:03:30;;;;;;;2.63;2.40;;;20.30;42.70;;;;;;5025785;28;20044;-63
2022/04/24 02:05:57;;;;;;;2.53;2.33;;;20.30;42.70;;;;;;5031230;28;20041;-62
2022/04/24 02:08:23;;;;;;;2.50;2.30;;;20.30;42.70;;;;;;5030675;28;20064;-63
2022/04/24 02:10:49;;;;;;;2.60;2.40;;;20.30;42.70;;;;;;5031373;28;20045;-63
2022/04/24 02:13:15;;;;;;;2.30;2.10;;;20.30;42.70;;;;;;5031727;28;20048;-62
2022/04/24 02:15:41;;;;;;;2.65;2.45;;;20.30;42.60;;;;;;5050799;28;20041;-61
2022/04/24 02:18:07;;;;;;;2.65;2.40;;;20.30;42.60;;;;;;5034593;28;20040;-63
2022/04/24 02:20:32;;;;;;;2.42;2.00;;;20.30;42.60;;;;;;5027897;28;20041;-62
2022/04/24 02:22:59;;;;;;;2.45;2.25;;;20.30;42.60;;;;;;5032447;28;20389;-64
2022/04/24 02:25:25;;;;;;;2.50;2.30;;;20.30;42.60;;;;;;5045753;28;20427;-61
2022/04/24 02:27:53;;;;;;;2.53;2.33;;;20.30;42.60;;;;;;5030485;28;20064;-62
2022/04/24 02:30:23;;;;;;;2.72;2.45;;;20.30;42.60;;;;;;5030940;28;20051;-61
2022/04/24 02:32:49;;;;;;;2.85;2.58;;;20.30;42.60;;;;;;5030930;28;20068;-61
2022/04/24 02:35:15;;;;;;;2.50;2.35;;;20.20;42.50;;;;;;5046471;28;20464;-61
2022/04/24 02:37:42;;;;;;;2.70;2.50;;;20.30;42.50;;;;;;5022619;28;20038;-62
2022/04/24 02:40:09;;;;;;;2.55;2.35;;;20.20;42.50;;;;;;5031830;28;20488;-62
2022/04/24 02:42:36;;;;;;;2.20;2.10;;;20.30;42.50;;;;;;5033920;28;20102;-61
2022/04/24 02:45:06;;;;;;;2.50;2.30;;;20.20;42.40;;;;;;5031323;28;20048;-63
2022/04/24 02:47:33;;;;;;;2.50;2.30;;;20.20;42.40;;;;;;5032576;28;20087;-61
2022/04/24 02:49:58;;;;;;;2.47;2.28;;;20.20;42.40;;;;;;5030688;28;20086;-63
2022/04/24 02:52:24;;;;;;;2.40;2.20;;;20.20;42.40;;;;;;5032159;28;20411;-63
2022/04/24 02:54:49;;;;;;;2.40;2.20;;;20.20;42.40;;;;;;5032168;28;20037;-65
2022/04/24 02:57:15;;;;;;;2.67;2.47;;;20.20;42.30;;;;;;5030487;28;20086;-61
2022/04/24 02:59:49;;;;;;;2.53;2.33;;;20.20;42.40;;;;;;5031460;28;20037;-64
2022/04/24 03:02:16;;;;;;;2.40;2.20;;;20.20;42.30;;;;;;5030899;28;20099;-62
2022/04/24 03:04:41;;;;;;;2.90;2.60;;;20.20;42.30;;;;;;5032473;28;20057;-61
2022/04/24 03:07:07;;;;;;;2.70;2.50;;;20.20;42.30;;;;;;5049353;28;20071;-63
2022/04/24 03:09:33;;;;;;;2.78;2.58;;;20.20;42.30;;;;;;5031337;28;20045;-62
2022/04/24 03:11:59;;;;;;;2.40;2.10;;;20.20;42.30;;;;;;5031317;28;20091;-62
2022/04/24 03:14:24;;;;;;;2.17;2.03;;;20.20;42.20;;;;;;5039309;28;20052;-65
2022/04/24 03:16:50;;;;;;;2.38;2.17;;;20.20;42.20;;;;;;5034253;28;20631;-62
2022/04/24 03:19:16;;;;;;;2.53;2.33;;;20.20;42.20;;;;;;5030471;28;20126;-63
2022/04/24 03:21:41;;;;;;;3.55;2.50;;;20.20;42.20;;;;;;5042431;28;20144;-63
2022/04/24 03:24:07;;;;;;;2.75;2.55;;;20.20;42.20;;;;;;5049034;28;20038;-62
2022/04/24 03:26:32;;;;;;;2.20;2.10;;;20.20;42.20;;;;;;5036446;28;20751;-63
2022/04/24 03:28:58;;;;;;;2.28;2.08;;;20.20;42.20;;;;;;5034905;28;20041;-62
2022/04/24 03:31:24;;;;;;;2.28;2.17;;;20.20;42.20;;;;;;5038364;28;20049;-62
2022/04/24 03:33:52;;;;;;;2.38;2.22;;;20.20;42.20;;;;;;5035193;28;20041;-62
2022/04/24 03:36:20;;;;;;;2.72;2.53;;;20.20;42.10;;;;;;5034789;28;20080;-63
2022/04/24 03:38:46;;;;;;;2.60;2.40;;;20.20;42.10;;;;;;5034285;28;20072;-61
2022/04/24 03:41:12;;;;;;;2.53;2.33;;;20.20;42.10;;;;;;5031823;28;20084;-62
2022/04/24 03:43:38;;;;;;;3.45;2.47;;;20.20;42.30;;;;;;5034400;28;20037;-62
2022/04/24 03:46:05;;;;;;;2.30;2.10;;;20.10;42.00;;;;;;5033857;28;20082;-63
2022/04/24 03:48:31;;;;;;;2.50;2.30;;;20.20;42.10;;;;;;5035227;28;20053;-62
2022/04/24 03:50:56;;;;;;;2.88;2.03;;;20.10;42.00;;;;;;5035285;28;20490;-63
2022/04/24 03:53:22;;;;;;;2.63;2.40;;;20.20;42.10;;;;;;5035720;28;20041;-65
2022/04/24 03:55:47;;;;;;;2.30;1.95;;;20.10;42.00;;;;;;5037676;28;20688;-62
2022/04/24 03:58:13;;;;;;;2.10;2.00;;;20.10;42.00;;;;;;5033865;28;20045;-63
2022/04/24 04:00:38;;;;;;;2.05;1.95;;;20.10;42.00;;;;;;5032385;28;20033;-61
2022/04/24 04:03:04;;;;;;;2.45;2.30;;;20.10;41.90;;;;;;5034105;28;20501;-62
2022/04/24 04:05:29;;;;;;;2.40;2.30;;;20.10;42.30;;;;;;5030634;28;20382;-62
2022/04/24 04:07:56;;;;;;;2.40;2.20;;;20.10;41.90;;;;;;5034299;28;20113;-62
2022/04/24 04:10:22;;;;;;;2.47;2.30;;;20.10;41.90;;;;;;5036209;28;20041;-65
2022/04/24 04:12:49;;;;;;;2.22;2.03;;;20.10;41.90;;;;;;5034086;28;20044;-62
2022/04/24 04:15:15;;;;;;;2.28;2.10;;;20.10;41.90;;;;;;5051482;28;20476;-61
2022/04/24 04:17:40;;;;;;;2.20;1.90;;;20.10;41.80;;;;;;5034136;28;20128;-63
2022/04/24 04:20:11;;;;;;;2.78;2.58;;;20.10;41.80;;;;;;5030439;28;20096;-62
2022/04/24 04:22:58;;;;;;;2.08;1.98;;;20.10;41.80;;;;;;5033075;28;20049;-62
2022/04/24 04:25:24;;;;;;;2.28;2.05;;;20.10;41.80;;;;;;5050339;28;20084;-62
2022/04/24 04:27:50;;;;;;;2.83;2.20;;;20.10;41.80;;;;;;5036615;28;20065;-62
2022/04/24 04:30:16;;;;;;;2.35;2.20;;;20.10;41.80;;;;;;5049970;28;20052;-64
2022/04/24 04:32:42;;;;;;;2.33;2.13;;;20.00;41.80;;;;;;5031941;28;20049;-62
2022/04/24 04:35:09;;;;;;;2.72;1.75;;;20.00;41.70;;;;;;5036338;28;20107;-63
2022/04/24 04:37:36;;;;;;;2.28;2.17;;;20.10;41.80;;;;;;5033020;28;20103;-62
2022/04/24 04:40:03;;;;;;;2.67;2.47;;;20.10;41.70;;;;;;5036317;28;20043;-63
2022/04/24 04:42:29;;;;;;;2.03;1.92;;;20.00;41.60;;;;;;5034319;28;20065;-62
2022/04/24 04:44:56;;;;;;;2.50;2.30;;;20.00;41.60;;;;;;5038337;28;20496;-62
2022/04/24 04:47:22;;;;;;;2.33;2.13;;;20.00;41.60;;;;;;5033844;28;20096;-62
2022/04/24 04:49:47;;;;;;;2.53;2.33;;;20.00;41.60;;;;;;5035139;28;20045;-63
2022/04/24 04:52:13;;;;;;;2.30;2.10;;;20.00;41.60;;;;;;5034751;28;20041;-63
2022/04/24 04:54:40;;;;;;;2.55;2.35;;;20.00;41.60;;;;;;5031292;28;20136;-63
2022/04/24 04:57:06;;;;;;;2.30;2.10;;;20.00;41.50;;;;;;5034314;28;20417;-63
2022/04/24 04:59:31;;;;;;;2.50;2.30;;;20.00;41.50;;;;;;5035188;28;20037;-62
2022/04/24 05:01:57;;;;;;;2.13;2.03;;;20.00;41.50;;;;;;5033319;28;20037;-63
2022/04/24 05:04:22;;;;;;;2.05;1.95;;;20.00;41.50;;;;;;5042980;28;20508;-62
2022/04/24 05:06:48;;;;;;;2.20;2.10;;;20.00;41.50;;;;;;5035012;28;20315;-61
2022/04/24 05:09:13;;;;;;;2.40;2.20;;;20.00;41.40;;;;;;5031985;28;20645;-64
2022/04/24 05:11:39;;;;;;;2.28;2.17;;;20.00;41.40;;;;;;5033789;28;20539;-62
2022/04/24 05:14:05;;;;;;;2.22;2.08;;;20.00;41.50;;;;;;5032194;28;20091;-61
2022/04/24 05:16:31;;;;;;;2.28;2.10;;;20.00;41.50;;;;;;5031767;28;20045;-63
2022/04/24 05:18:58;;;;;;;2.10;2.00;;;20.00;41.40;;;;;;5032192;28;20041;-65
2022/04/24 05:21:24;;;;;;;2.30;2.20;;;20.00;41.40;;;;;;5032859;28;20456;-63
2022/04/24 05:23:52;;;;;;;1.90;1.80;;;20.00;41.40;;;;;;5035861;28;20152;-62
2022/04/24 05:26:17;;;;;;;2.40;2.20;;;20.00;41.40;;;;;;5031845;28;20056;-62
2022/04/24 05:28:43;;;;;;;2.47;2.25;;;20.00;41.40;;;;;;5035070;28;20037;-62
2022/04/24 05:31:08;;;;;;;2.60;2.20;;;20.00;41.30;;;;;;5032749;28;20049;-62
2022/04/24 05:33:34;;;;;;;2.35;2.20;;;20.00;41.40;;;;;;5048190;28;20385;-64
2022/04/24 05:36:00;;;;;;;2.08;1.98;;;20.00;41.40;;;;;;5031278;28;20056;-62
2022/04/24 05:38:25;;;;;;;2.50;2.30;;;19.90;41.30;;;;;;5033327;28;20048;-61
2022/04/24 05:40:51;;;;;;;2.15;2.05;;;20.00;41.30;;;;;;5033392;28;20291;-61
2022/04/24 05:43:16;;;;;;;2.17;2.08;;;20.00;41.30;;;;;;5034176;28;20528;-62
2022/04/24 05:45:42;;;;;;;2.40;2.20;;;20.00;41.30;;;;;;5032350;28;20357;-63
2022/04/24 05:48:08;;;;;;;2.30;2.10;;;20.00;42.00;;;;;;5033035;28;20051;-62
2022/04/24 05:50:33;;;;;;;2.60;2.40;;;20.00;41.40;;;;;;5033904;28;20037;-63
2022/04/24 05:52:59;;;;;;;2.05;1.95;;;20.00;41.30;;;;;;5033238;28;20132;-62
2022/04/24 05:55:25;;;;;;;2.42;2.22;;;20.00;41.30;;;;;;5033314;28;20492;-62
2022/04/24 05:57:52;;;;;;;2.08;1.98;;;20.00;41.40;;;;;;5034795;28;20120;-63
2022/04/24 06:00:18;;;;;;;1.92;1.83;;;20.00;41.30;;;;;;5040633;28;20107;-62
2022/04/24 06:02:44;;;;;;;2.30;2.10;;;20.00;41.30;;;;;;5029662;28;20158;-66
2022/04/24 06:05:13;;;;;;;2.20;2.10;;;20.00;41.30;;;;;;5034195;28;20421;-65
2022/04/24 06:07:40;;;;;;;2.38;2.17;;;20.00;41.30;;;;;;5030203;28;20381;-63
2022/04/24 06:10:07;;;;;;;2.00;1.90;;;20.00;41.30;;;;;;5033949;28;20037;-63
2022/04/24 06:12:48;;;;;;;2.28;2.13;;;20.00;41.20;;;;;;5040734;28;20500;-61
2022/04/24 06:15:20;;;;;;;2.42;2.22;;;20.00;41.20;;;;;;5050028;28;20084;-61
2022/04/24 06:17:47;;;;;;;2.17;2.08;;;20.00;41.20;;;;;;5031762;28;20863;-62
2022/04/24 06:20:14;;;;;;;1.92;1.83;;;20.00;41.30;;;;;;5033141;28;20084;-63
2022/04/24 06:22:43;;;;;;;1.90;1.80;;;20.00;41.20;;;;;;5030826;28;20036;-62
2022/04/24 06:25:09;;;;;;;2.25;2.10;;;20.00;41.20;;;;;;5031992;28;20111;-63
2022/04/24 06:27:35;;;;;;;2.00;1.80;;;20.00;41.20;;;;;;5030610;28;20080;-62
2022/04/24 06:30:01;;;;;;;2.05;1.95;;;20.00;41.30;;;;;;5031055;28;20133;-63
2022/04/24 06:32:30;;;;;;;1.90;1.80;;;20.00;41.30;;;;;;5048971;28;20452;-62
2022/04/24 06:34:56;;;;;;;2.00;1.80;;;20.00;41.20;;;;;;5033106;28;20045;-64
2022/04/24 06:37:21;;;;;;;2.28;2.08;;;20.00;41.30;;;;;;5032560;28;20827;-64
2022/04/24 06:39:47;;;;;;;2.22;1.83;;;20.00;41.40;;;;;;5029931;28;20482;-62
2022/04/24 06:42:12;;;;;;;2.17;1.73;;;20.00;41.50;;;;;;5034980;28;20496;-62
2022/04/24 06:44:38;;;;;;;3.35;2.13;;;20.00;41.60;;;;;;5045187;28;20121;-61
2022/04/24 06:47:04;;;;;;;6.07;2.45;;;20.10;41.90;;;;;;5031445;28;20174;-65
2022/04/24 06:49:29;;;;;;;2.45;2.10;;;20.10;42.00;;;;;;5029283;28;20091;-65
2022/04/24 06:51:55;;;;;;;4.28;2.25;;;20.10;41.90;;;;;;5032776;28;20034;-64
2022/04/24 06:54:20;;;;;;;3.05;2.35;;;20.10;41.90;;;;;;5048440;28;20104;-61
2022/04/24 06:56:46;;;;;;;3.85;2.40;;;20.10;41.90;;;;;;5036636;28;20037;-62
2022/04/24 06:59:11;;;;;;;2.83;2.45;;;20.20;41.80;;;;;;5034301;28;20561;-63
2022/04/24 07:01:37;;;;;;;4.10;2.70;;;20.20;41.80;;;;;;5037199;28;20117;-61
2022/04/24 07:04:03;;;;;;;2.67;2.47;;;20.20;41.70;;;;;;5038132;28;20746;-62
2022/04/24 07:06:28;;;;;;;2.60;2.33;;;20.20;41.60;;;;;;5036367;28;20430;-62
2022/04/24 07:08:54;;;;;;;3.05;2.47;;;20.20;41.40;;;;;;5035501;28;20143;-62
2022/04/24 07:11:22;;;;;;;3.40;2.30;;;20.20;41.40;;;;;;5039675;28;20048;-63
2022/04/24 07:13:47;;;;;;;10.68;2.55;;;20.20;41.40;;;;;;5038840;28;20818;-61
2022/04/24 07:16:13;;;;;;;3.55;2.60;;;20.20;41.30;;;;;;5036654;28;20048;-62
2022/04/24 07:18:38;;;;;;;2.50;2.30;;;20.20;41.20;;;;;;5036375;28;20075;-62
2022/04/24 07:21:06;;;;;;;2.55;2.35;;;20.30;41.10;;;;;;5034999;28;20130;-64
2022/04/24 07:23:31;;;;;;;4.50;2.53;;;20.30;41.20;;;;;;5031532;28;20481;-63
2022/04/24 07:25:58;;;;;;;2.45;2.30;;;20.30;41.20;;;;;;5035674;28;20033;-60
2022/04/24 07:28:24;;;;;;;4.13;2.47;;;20.40;41.30;;;;;;5030601;28;20135;-62
2022/04/24 07:30:50;;;;;;;2.70;2.50;;;20.40;41.30;;;;;;5032704;28;20136;-63
2022/04/24 07:33:16;;;;;;;5.05;2.50;;;20.40;41.30;;;;;;5034994;28;20167;-63
2022/04/24 07:35:42;;;;;;;2.65;2.13;;;20.30;41.30;;;;;;5033031;28;20049;-60
2022/04/24 07:38:08;;;;;;;3.20;2.60;;;20.30;41.30;;;;;;5033198;28;20037;-61
2022/04/24 07:40:39;;;;;;;3.35;2.30;;;20.40;41.50;;;;;;5036585;28;20473;-62
2022/04/24 07:43:09;;;;;;;3.88;2.45;;;20.40;41.50;;;;;;5036674;28;20040;-63
2022/04/24 07:45:40;;;;;;;2.60;2.40;;;20.40;41.50;;;;;;5035604;28;20068;-64
2022/04/24 07:48:08;;;;;;;2.88;2.00;;;20.40;41.50;;;;;;5036507;28;20040;-61
2022/04/24 07:50:54;;;;;;;3.50;2.60;;;20.40;41.50;;;;;;5033786;28;20060;-64
2022/04/24 07:53:20;;;;;;;2.65;2.42;;;20.40;41.40;;;;;;5033612;28;20776;-62
2022/04/24 07:55:48;;;;;;;3.42;2.65;;;20.40;41.50;;;;;;5035024;28;20040;-61
2022/04/24 07:58:14;;;;;;;2.88;2.28;;;20.40;41.50;;;;;;5034053;28;20048;-62
2022/04/24 08:00:41;;;;;;;2.60;2.35;;;20.40;41.40;;;;;;5035603;28;20131;-61
2022/04/24 08:03:08;;;;;;;3.80;2.58;;;20.40;41.30;;;;;;5034084;28;20040;-63
2022/04/24 08:05:49;;;;;;;3.60;2.53;;;20.40;41.30;;;;;;5031411;28;20136;-61
2022/04/24 08:08:20;;;;;;;3.58;2.10;;;20.50;41.30;;;;;;5034032;28;20048;-61
2022/04/24 08:10:50;;;;;;;3.28;2.00;;;20.50;41.10;;;;;;5035482;28;20049;-61
2022/04/24 08:13:18;;;;;;;2.45;2.25;;;20.50;41.20;;;;;;5035549;28;21018;-61
2022/04/24 08:15:44;;;;;;;2.28;2.05;;;20.50;41.20;;;;;;5035513;28;20385;-62
2022/04/24 08:18:10;;;;;;;2.25;2.05;;;20.50;41.30;;;;;;5034476;28;20083;-63
2022/04/24 08:20:37;;;;;;;4.28;2.08;;;20.50;41.30;;;;;;5035928;28;20040;-62
2022/04/24 08:23:03;;;;;;;3.65;2.40;;;20.50;41.30;;;;;;5035406;28;20067;-62
2022/04/24 08:25:34;;;;;;;6.15;2.20;;;20.50;41.30;;;;;;5034632;28;20052;-61
2022/04/24 08:28:02;;;;;;;3.47;2.25;;;20.50;41.30;;;;;;5035580;28;20041;-62
2022/04/24 08:30:28;;;;;;;9.98;2.90;;;20.50;41.20;;;;;;5033342;28;20390;-62
2022/04/24 08:32:54;;;;;;;4.53;2.30;;;20.50;41.10;;;;;;5034990;28;20056;-62
2022/04/24 08:35:20;;;;;;;2.72;2.20;;;20.50;41.10;;;;;;5035642;28;20456;-62
2022/04/24 08:37:47;;;;;;;2.38;2.10;;;20.50;41.30;;;;;;5036604;28;20029;-62
2022/04/24 08:40:15;;;;;;;3.03;2.03;;;20.50;41.30;;;;;;5036210;28;20029;-61
2022/04/24 08:42:41;;;;;;;3.97;1.98;;;20.50;41.40;;;;;;5033799;28;20154;-61
2022/04/24 08:45:10;;;;;;;3.53;2.00;;;20.50;41.40;;;;;;5047587;28;20057;-62
2022/04/24 08:47:36;;;;;;;7.50;2.00;;;20.60;41.40;;;;;;5029038;28;20117;-61
2022/04/24 08:50:02;;;;;;;4.97;2.15;;;20.60;41.50;;;;;;5035337;28;20458;-62
2022/04/24 08:52:29;;;;;;;3.20;2.33;;;20.60;41.70;;;;;;5033307;28;20053;-61
2022/04/24 08:54:56;;;;;;;3.88;2.15;;;20.60;41.70;;;;;;5031842;28;20049;-61
2022/04/24 08:57:26;;;;;;;2.97;1.95;;;20.60;41.60;;;;;;5031802;28;20373;-61
2022/04/24 08:59:54;;;;;;;5.00;1.97;;;20.60;41.50;;;;;;5045448;28;20116;-62
2022/04/24 09:02:20;;;;;;;4.00;1.67;;;20.60;41.70;;;;;;5032506;28;20045;-61
2022/04/24 09:04:45;;;;;;;2.63;1.95;;;20.60;41.80;;;;;;5016523;28;20243;-61
2022/04/24 09:07:17;;;;;;;6.15;1.90;;;20.60;41.70;;;;;;5032052;28;20033;-61
2022/04/24 09:09:44;;;;;;;2.63;1.70;;;20.60;41.70;;;;;;5035061;28;20082;-62
2022/04/24 09:12:15;;;;;;;3.28;1.60;;;20.60;41.70;;;;;;5032765;28;20056;-62
2022/04/24 09:14:41;;;;;;;4.63;2.13;;;20.70;41.80;;;;;;5031478;28;20034;-62
2022/04/24 09:17:15;;;;;;;4.25;1.95;;;20.60;41.60;;;;;;5033317;28;20280;-61
2022/04/24 09:19:40;;;;;;;3.00;1.80;;;20.70;41.60;;;;;;5032132;28;20044;-63
2022/04/24 09:22:09;;;;;;;2.40;2.05;;;20.70;41.40;;;;;;5029456;28;20037;-63
2022/04/24 09:24:42;;;;;;;2.22;1.77;;;20.70;41.40;;;;;;5028693;28;21360;-63
2022/04/24 09:27:09;;;;;;;2.75;1.70;;;20.70;41.30;;;;;;5033803;28;20098;-64
2022/04/24 09:29:35;;;;;;;1.92;1.83;;;20.70;41.30;;;;;;5032409;28;20025;-62
2022/04/24 09:32:01;;;;;;;3.47;1.65;;;20.70;41.20;;;;;;5029823;28;20045;-62
2022/04/24 09:34:33;;;;;;;3.05;1.65;;;20.70;41.20;;;;;;5031619;28;20049;-63
2022/04/24 09:37:01;;;;;;;1.75;1.30;;;20.70;41.30;;;;;;5033394;28;20815;-62
2022/04/24 09:39:35;;;;;;;3.30;1.48;;;20.70;41.50;;;;;;5033540;28;20037;-61
2022/04/24 09:42:09;;;;;;;5.45;1.80;;;20.70;41.30;;;;;;5033964;28;20049;-61
2022/04/24 09:44:42;;;;;;;2.63;1.90;;;20.70;40.90;;;;;;5034944;28;20033;-61
2022/04/24 09:47:08;;;;;;;3.08;1.58;;;20.70;40.80;;;;;;5035052;28;20380;-61
2022/04/24 09:49:39;;;;;;;2.17;1.70;;;20.60;40.70;;;;;;5052358;28;20449;-61
2022/04/24 09:52:13;;;;;;;2.40;1.70;;;20.70;40.50;;;;;;5036640;28;20034;-62
2022/04/24 09:54:41;;;;;;;3.67;1.85;;;20.60;40.50;;;;;;5033631;28;20508;-61
2022/04/24 09:57:09;;;;;;;4.18;1.30;;;20.60;40.30;;;;;;5033666;28;20080;-64
2022/04/24 09:59:36;;;;;;;4.57;1.88;;;20.70;40.10;;;;;;5035641;28;20133;-61
2022/04/24 10:02:04;;;;;;;4.97;2.22;;;20.60;40.10;;;;;;5034216;28;20041;-61
2022/04/24 10:04:30;;;;;;;3.65;2.20;;;20.60;40.00;;;;;;5035836;28;20440;-62
2022/04/24 10:06:57;;;;;;;3.63;1.85;;;20.60;40.10;;;;;;5048629;28;20049;-63
2022/04/24 10:09:24;;;;;;;3.85;1.73;;;20.60;40.10;;;;;;5031584;28;20045;-62
2022/04/24 10:11:50;;;;;;;3.53;1.85;;;20.60;40.00;;;;;;5027616;28;20037;-62
2022/04/24 10:14:17;;;;;;;4.82;1.70;;;20.60;40.00;;;;;;5029591;28;20088;-65
2022/04/24 10:17:02;;;;;;;2.58;1.60;;;20.60;39.90;;;;;;5047561;28;20855;-61
2022/04/24 10:19:54;;;;;;;3.22;1.98;;;20.60;39.90;;;;;;5032017;28;20076;-62
2022/04/24 10:22:33;;;;;;;1.70;1.60;;;20.60;39.70;;;;;;5031416;28;20045;-62
2022/04/24 10:25:01;;;;;;;1.92;1.58;;;20.60;39.60;;;;;;5027948;28;20547;-62
2022/04/24 10:27:40;;;;;;;9.88;1.98;;;20.60;39.70;;;;;;5028238;28;20049;-61
2022/04/24 10:30:07;;;;;;;2.03;1.35;;;20.60;39.60;;;;;;5027086;28;20103;-65
2022/04/24 10:32:33;;;;;;;4.38;1.70;;;20.60;39.40;;;;;;5028998;28;20266;-62
2022/04/24 10:34:59;;;;;;;2.75;1.50;;;20.60;39.40;;;;;;5034287;28;20163;-61
2022/04/24 10:37:30;;;;;;;2.30;1.60;;;20.70;39.50;;;;;;5032776;28;20066;-62
2022/04/24 10:39:58;;;;;;;3.35;1.85;;;20.60;39.30;;;;;;5038781;28;20090;-65
2022/04/24 10:42:34;;;;;;;4.70;1.40;;;20.60;39.30;;;;;;5034241;28;20061;-63
2022/04/24 10:45:06;;;;;;;3.95;1.50;;;20.60;39.20;;;;;;5026878;28;20052;-64
2022/04/24 10:47:50;;;;;;;1.95;1.50;;;20.60;39.20;;;;;;5026489;28;20104;-61
2022/04/24 10:50:20;;;;;;;2.85;1.40;;;20.60;39.00;;;;;;5027578;28;20094;-62
2022/04/24 10:52:47;;;;;;;2.33;1.40;;;20.60;39.20;;;;;;5032304;28;20182;-61
2022/04/24 10:55:15;;;;;;;3.63;1.58;;;20.60;39.30;;;;;;5030869;28;20057;-60
2022/04/24 10:57:46;;;;;;;3.17;1.48;;;20.60;39.10;;;;;;5034432;28;20033;-60
2022/04/24 11:00:26;;;;;;;1.50;1.40;;;20.70;39.60;;;;;;5038260;28;20037;-60
2022/04/24 11:02:52;;;;;;;1.40;1.30;;;20.70;39.30;;;;;;5031581;28;20770;-60
2022/04/24 11:05:20;;;;;;;4.20;1.45;;;20.80;39.20;;;;;;5024256;28;20041;-61
2022/04/24 11:07:47;;;;;;;3.58;1.13;;;20.80;39.30;;;;;;5034495;28;20064;-64
2022/04/24 11:10:17;;;;;;;1.83;1.30;;;20.80;39.40;;;;;;5030606;28;20037;-62
2022/04/24 11:12:43;;;;;;;2.50;1.30;;;20.80;39.30;;;;;;5035068;28;20037;-60
2022/04/24 11:15:13;;;;;;;3.25;1.95;;;20.80;39.30;;;;;;5045115;28;20045;-61
2022/04/24 11:17:39;;;;;;;2.05;1.50;;;20.70;39.10;;;;;;5032669;28;20663;-60
2022/04/24 11:20:16;;;;;;;5.22;1.60;;;20.70;39.20;;;;;;5027897;28;20040;-62
2022/04/24 11:22:55;;;;;;;6.80;1.92;;;20.80;39.40;;;;;;5029538;28;20469;-60
2022/04/24 11:25:22;;;;;;;2.90;1.50;;;20.80;39.70;;;;;;5031239;28;20069;-63
2022/04/24 11:27:57;;;;;;;4.20;1.60;;;20.70;39.70;;;;;;5032364;28;20036;-61
2022/04/24 11:30:32;;;;;;;3.15;1.23;;;20.70;39.80;;;;;;5029613;28;20528;-62
2022/04/24 11:33:06;;;;;;;3.22;1.48;;;20.70;39.80;;;;;;5038473;28;20053;-63
2022/04/24 11:35:35;;;;;;;2.97;1.50;;;20.70;39.90;;;;;;5027197;28;20073;-61
2022/04/24 11:38:01;;;;;;;3.35;1.48;;;20.70;40.00;;;;;;5036500;28;20040;-61
2022/04/24 11:40:28;;;;;;;2.08;1.40;;;20.70;40.00;;;;;;5033196;28;20056;-60
2022/04/24 11:43:05;;;;;;;4.30;1.42;;;20.70;39.90;;;;;;5031298;28;20069;-63
2022/04/24 11:51:15;;;;;;;3.30;1.23;;;20.70;40.30;;;;;;5034475;28;20056;-61
2022/04/24 11:53:42;;;;;;;3.95;1.25;;;20.70;40.10;;;;;;5035852;28;20045;-64
2022/04/24 11:56:09;;;;;;;1.77;1.35;;;20.70;40.20;;;;;;5032960;28;20481;-62
2022/04/24 11:58:40;;;;;;;2.10;1.38;;;20.70;40.30;;;;;;5035049;28;20464;-62
2022/04/24 12:01:13;;;;;;;1.40;1.30;;;20.70;40.20;;;;;;5051409;28;20499;-61
2022/04/24 12:03:43;;;;;;;3.22;1.45;;;20.80;40.00;;;;;;5033426;28;20044;-64
2022/04/24 12:06:12;;;;;;;3.00;1.50;;;20.80;39.80;;;;;;5031907;28;20056;-61
2022/04/24 12:08:43;;;;;;;1.75;1.50;;;20.80;39.90;;;;;;5035733;28;20080;-61
2022/04/24 12:11:29;;;;;;;1.45;1.20;;;20.80;39.90;;;;;;5035680;28;20479;-61
2022/04/24 12:14:07;;;;;;;2.00;1.30;;;20.70;39.80;;;;;;5036119;28;20046;-61
2022/04/24 12:16:40;;;;;;;1.73;1.40;;;20.80;39.70;;;;;;5033610;28;20094;-61
2022/04/24 12:19:08;;;;;;;1.15;1.05;;;20.80;39.70;;;;;;5033482;28;20083;-62
2022/04/24 12:21:51;;;;;;;1.27;1.13;;;20.70;39.60;;;;;;5034072;28;20033;-62
2022/04/24 12:24:17;;;;;;;1.92;1.20;;;20.80;39.40;;;;;;5035976;28;20041;-62
2022/04/24 12:26:53;;;;;;;1.25;1.00;;;20.80;39.30;;;;;;5043098;28;20052;-61
2022/04/24 12:29:19;;;;;;;2.08;1.23;;;20.80;39.30;;;;;;5035917;28;20044;-62
2022/04/24 12:31:46;;;;;;;2.00;1.35;;;20.80;39.30;;;;;;5032595;28;20065;-60
2022/04/24 12:34:13;;;;;;;1.17;1.08;;;20.80;39.00;;;;;;5034685;28;20055;-60
2022/04/24 12:36:52;;;;;;;1.38;1.27;;;20.80;39.00;;;;;;5036062;28;20033;-61
2022/04/24 12:39:25;;;;;;;1.58;1.20;;;20.80;38.90;;;;;;5035213;28;20069;-60
2022/04/24 12:41:51;;;;;;;1.30;1.20;;;20.80;38.90;;;;;;5035398;28;20048;-61
2022/04/24 12:44:17;;;;;;;1.30;1.20;;;20.80;38.80;;;;;;5033100;28;20049;-62
2022/04/24 12:46:42;;;;;;;1.98;1.10;;;20.80;38.70;;;;;;5032441;28;20053;-59
2022/04/24 12:49:08;;;;;;;1.65;1.48;;;20.80;38.70;;;;;;5034887;28;20370;-62
2022/04/24 12:51:34;;;;;;;1.67;1.20;;;20.80;38.70;;;;;;5035199;28;20380;-61
2022/04/24 12:54:01;;;;;;;2.70;1.20;;;20.80;38.80;;;;;;5035907;28;20033;-60
2022/04/24 12:56:27;;;;;;;2.97;1.30;;;20.80;38.70;;;;;;5037157;28;20064;-60